createdAt,value
2022-09-15T00:00:13.805Z,989.74
2022-09-15T00:01:13.820Z,989.70
2022-09-15T00:02:14.137Z,989.70
2022-09-15T00:03:13.587Z,989.73
2022-09-15T00:04:13.781Z,989.69
2022-09-15T00:05:13.792Z,989.72
2022-09-15T00:06:13.694Z,989.70
2022-09-15T00:07:13.715Z,989.70
2022-09-15T00:08:13.714Z,989.66
2022-09-15T00:09:13.682Z,989.68
2022-09-15T00:10:13.630Z,989.71
2022-09-15T00:11:13.698Z,989.67
2022-09-15T00:12:14.046Z,989.70
2022-09-15T00:13:13.053Z,989.67
2022-09-15T00:14:12.883Z,989.68
2022-09-15T00:15:13.916Z,989.70
2022-09-15T00:16:15.223Z,989.69
2022-09-15T00:17:13.705Z,989.67
2022-09-15T00:18:13.780Z,989.69
2022-09-15T00:19:13.698Z,989.69
2022-09-15T00:20:13.839Z,989.63
2022-09-15T00:21:14.015Z,989.65
2022-09-15T00:22:13.493Z,989.68
2022-09-15T00:23:13.894Z,989.63
2022-09-15T00:24:13.129Z,989.64
2022-09-15T00:25:13.169Z,989.62
2022-09-15T00:26:13.300Z,989.64
2022-09-15T00:27:13.147Z,989.60
2022-09-15T00:28:14.532Z,989.60
2022-09-15T00:29:13.687Z,989.65
2022-09-15T00:30:13.533Z,989.63
2022-09-15T00:31:13.619Z,989.64
2022-09-15T00:32:13.498Z,989.58
2022-09-15T00:33:14.166Z,989.58
2022-09-15T00:34:13.094Z,989.58
2022-09-15T00:35:12.985Z,989.60
2022-09-15T00:36:13.024Z,989.63
2022-09-15T00:37:13.114Z,989.63
2022-09-15T00:38:13.026Z,989.61
2022-09-15T00:39:12.940Z,989.60
2022-09-15T00:40:13.017Z,989.64
2022-09-15T00:41:13.117Z,989.66
2022-09-15T00:42:13.174Z,989.66
2022-09-15T00:43:13.341Z,989.63
2022-09-15T00:44:13.215Z,989.62
2022-09-15T00:45:14.341Z,989.63
2022-09-15T00:46:13.387Z,989.64
2022-09-15T00:47:19.723Z,989.62
2022-09-15T00:48:13.029Z,989.63
2022-09-15T00:49:12.859Z,989.64
2022-09-15T00:50:13.932Z,989.64
2022-09-15T00:51:12.904Z,989.68
2022-09-15T00:52:13.170Z,989.63
2022-09-15T00:53:13.604Z,989.71
2022-09-15T00:54:13.521Z,989.68
2022-09-15T00:55:13.662Z,989.66
2022-09-15T00:56:13.588Z,989.69
2022-09-15T00:57:13.521Z,989.68
2022-09-15T00:58:13.515Z,989.67
2022-09-15T00:59:13.893Z,989.66
2022-09-15T01:00:12.942Z,989.70
2022-09-15T01:01:13.212Z,989.65
2022-09-15T01:02:13.356Z,989.63
2022-09-15T01:03:13.777Z,989.63
2022-09-15T01:04:13.829Z,989.63
2022-09-15T01:05:13.692Z,989.68
2022-09-15T01:06:13.532Z,989.63
2022-09-15T01:07:13.552Z,989.59
2022-09-15T01:08:13.433Z,989.61
2022-09-15T01:09:13.382Z,989.63
2022-09-15T01:10:13.433Z,989.62
2022-09-15T01:11:13.725Z,989.64
2022-09-15T01:12:17.361Z,989.63
2022-09-15T01:13:13.465Z,989.59
2022-09-15T01:14:13.462Z,989.59
2022-09-15T01:15:13.848Z,989.57
2022-09-15T01:16:14.021Z,989.59
2022-09-15T01:17:13.316Z,989.60
2022-09-15T01:18:13.273Z,989.59
2022-09-15T01:19:13.301Z,989.56
2022-09-15T01:20:13.274Z,989.60
2022-09-15T01:21:13.407Z,989.56
2022-09-15T01:22:13.826Z,989.55
2022-09-15T01:23:13.731Z,989.57
2022-09-15T01:24:13.601Z,989.56
2022-09-15T01:25:13.685Z,989.51
2022-09-15T01:26:13.671Z,989.55
2022-09-15T01:27:30.648Z,989.52
2022-09-15T01:28:14.692Z,989.57
2022-09-15T01:29:14.261Z,989.56
2022-09-15T01:30:13.282Z,989.55
2022-09-15T01:31:13.352Z,989.53
2022-09-15T01:32:13.638Z,989.52
2022-09-15T01:33:13.682Z,989.54
2022-09-15T01:34:13.839Z,989.54
2022-09-15T01:35:13.868Z,989.54
2022-09-15T01:36:14.202Z,989.52
2022-09-15T01:37:13.861Z,989.54
2022-09-15T01:38:14.164Z,989.53
2022-09-15T01:39:13.287Z,989.53
2022-09-15T01:40:13.268Z,989.51
2022-09-15T01:41:13.501Z,989.54
2022-09-15T01:42:13.569Z,989.54
2022-09-15T01:43:13.670Z,989.55
2022-09-15T01:44:13.772Z,989.53
2022-09-15T01:45:13.715Z,989.55
2022-09-15T01:46:13.682Z,989.53
2022-09-15T01:47:13.877Z,989.53
2022-09-15T01:48:13.927Z,989.53
2022-09-15T01:49:13.100Z,989.49
2022-09-15T01:50:12.974Z,989.50
2022-09-15T01:51:13.199Z,989.49
2022-09-15T01:52:13.475Z,989.45
2022-09-15T01:53:18.581Z,989.42
2022-09-15T01:54:13.486Z,989.47
2022-09-15T01:55:13.525Z,989.48
2022-09-15T01:56:18.545Z,989.46
2022-09-15T01:57:13.677Z,989.46
2022-09-15T01:58:13.658Z,989.49
2022-09-15T01:59:14.001Z,989.49
2022-09-15T02:00:12.873Z,989.53
2022-09-15T02:01:14.134Z,989.53
2022-09-15T02:02:13.431Z,989.57
2022-09-15T02:03:13.428Z,989.55
2022-09-15T02:04:13.341Z,989.53
2022-09-15T02:05:13.434Z,989.53
2022-09-15T02:06:13.829Z,989.54
2022-09-15T02:07:13.922Z,989.52
2022-09-15T02:08:12.807Z,989.52
2022-09-15T02:09:13.676Z,989.52
2022-09-15T02:10:14.185Z,989.50
2022-09-15T02:11:13.283Z,989.51
2022-09-15T02:12:13.424Z,989.49
2022-09-15T02:13:13.465Z,989.51
2022-09-15T02:14:13.462Z,989.48
2022-09-15T02:15:13.643Z,989.53
2022-09-15T02:16:13.666Z,989.56
2022-09-15T02:17:13.612Z,989.55
2022-09-15T02:18:13.565Z,989.59
2022-09-15T02:19:13.525Z,989.61
2022-09-15T02:20:13.567Z,989.61
2022-09-15T02:21:13.621Z,989.59
2022-09-15T02:22:13.415Z,989.59
2022-09-15T02:23:13.412Z,989.58
2022-09-15T02:24:13.447Z,989.57
2022-09-15T02:25:13.342Z,989.58
2022-09-15T02:26:16.212Z,989.56
2022-09-15T02:27:13.046Z,989.60
2022-09-15T02:28:13.649Z,989.60
2022-09-15T02:29:13.626Z,989.61
2022-09-15T02:30:13.763Z,989.62
2022-09-15T02:31:14.502Z,989.62
2022-09-15T02:32:13.575Z,989.63
2022-09-15T02:33:14.991Z,989.63
2022-09-15T02:34:13.111Z,989.64
2022-09-15T02:35:13.012Z,989.63
2022-09-15T02:36:13.083Z,989.64
2022-09-15T02:37:13.317Z,989.65
2022-09-15T02:38:13.183Z,989.63
2022-09-15T02:39:15.712Z,989.66
2022-09-15T02:40:14.015Z,989.65
2022-09-15T02:41:13.151Z,989.65
2022-09-15T02:42:13.275Z,989.67
2022-09-15T02:43:13.559Z,989.69
2022-09-15T02:44:13.571Z,989.73
2022-09-15T02:45:13.436Z,989.66
2022-09-15T02:46:13.764Z,989.66
2022-09-15T02:47:13.799Z,989.65
2022-09-15T02:48:16.249Z,989.66
2022-09-15T02:49:21.427Z,989.62
2022-09-15T02:50:13.741Z,989.65
2022-09-15T02:51:13.715Z,989.60
2022-09-15T02:52:13.523Z,989.64
2022-09-15T02:53:13.745Z,989.66
2022-09-15T02:54:13.969Z,989.62
2022-09-15T02:55:12.894Z,989.64
2022-09-15T02:56:12.923Z,989.64
2022-09-15T02:57:12.925Z,989.66
2022-09-15T02:58:12.809Z,989.61
2022-09-15T02:59:14.125Z,989.60
2022-09-15T03:00:13.085Z,989.62
2022-09-15T03:01:13.219Z,989.63
2022-09-15T03:02:13.626Z,989.67
2022-09-15T03:03:13.639Z,989.63
2022-09-15T03:04:13.641Z,989.67
2022-09-15T03:05:13.722Z,989.66
2022-09-15T03:06:14.192Z,989.65
2022-09-15T03:07:13.277Z,989.60
2022-09-15T03:08:13.244Z,989.63
2022-09-15T03:09:13.211Z,989.66
2022-09-15T03:10:13.491Z,989.64
2022-09-15T03:11:13.770Z,989.63
2022-09-15T03:12:13.834Z,989.66
2022-09-15T03:13:13.916Z,989.70
2022-09-15T03:14:12.904Z,989.71
2022-09-15T03:15:12.846Z,989.71
2022-09-15T03:16:13.940Z,989.71
2022-09-15T03:17:12.988Z,989.78
2022-09-15T03:18:13.150Z,989.81
2022-09-15T03:19:13.100Z,989.79
2022-09-15T03:20:12.956Z,989.80
2022-09-15T03:21:13.185Z,989.79
2022-09-15T03:22:13.520Z,989.83
2022-09-15T03:23:13.508Z,989.84
2022-09-15T03:24:13.749Z,989.81
2022-09-15T03:25:13.699Z,989.79
2022-09-15T03:26:13.654Z,989.78
2022-09-15T03:27:13.650Z,989.76
2022-09-15T03:28:13.653Z,989.75
2022-09-15T03:29:13.606Z,989.78
2022-09-15T03:30:13.933Z,989.76
2022-09-15T03:31:13.087Z,989.73
2022-09-15T03:32:13.481Z,989.75
2022-09-15T03:33:13.467Z,989.75
2022-09-15T03:34:13.369Z,989.72
2022-09-15T03:35:13.393Z,989.73
2022-09-15T03:36:13.744Z,989.76
2022-09-15T03:37:14.552Z,989.74
2022-09-15T03:38:13.764Z,989.75
2022-09-15T03:39:14.051Z,989.74
2022-09-15T03:40:13.079Z,989.79
2022-09-15T03:41:12.975Z,989.76
2022-09-15T03:42:12.884Z,989.75
2022-09-15T03:43:16.628Z,989.71
2022-09-15T03:44:13.539Z,989.77
2022-09-15T03:45:13.426Z,989.74
2022-09-15T03:46:13.306Z,989.75
2022-09-15T03:47:13.221Z,989.74
2022-09-15T03:48:13.337Z,989.72
2022-09-15T03:49:13.407Z,989.73
2022-09-15T03:50:13.682Z,989.72
2022-09-15T03:51:13.790Z,989.69
2022-09-15T03:52:14.124Z,989.69
2022-09-15T03:53:14.079Z,989.71
2022-09-15T03:54:12.961Z,989.71
2022-09-15T03:55:13.037Z,989.73
2022-09-15T03:56:13.732Z,989.75
2022-09-15T03:57:13.963Z,989.72
2022-09-15T03:58:12.861Z,989.73
2022-09-15T03:59:14.081Z,989.74
2022-09-15T04:00:13.292Z,989.75
2022-09-15T04:01:13.693Z,989.73
2022-09-15T04:02:13.941Z,989.75
2022-09-15T04:03:12.973Z,989.72
2022-09-15T04:04:13.368Z,989.72
2022-09-15T04:05:13.458Z,989.76
2022-09-15T04:06:13.850Z,989.72
2022-09-15T04:07:13.838Z,989.68
2022-09-15T04:08:13.924Z,989.69
2022-09-15T04:09:12.856Z,989.72
2022-09-15T04:10:13.919Z,989.67
2022-09-15T04:11:12.796Z,989.67
2022-09-15T04:12:13.807Z,989.67
2022-09-15T04:13:13.710Z,989.67
2022-09-15T04:14:13.756Z,989.65
2022-09-15T04:15:13.901Z,989.66
2022-09-15T04:16:13.019Z,989.66
2022-09-15T04:17:13.191Z,989.64
2022-09-15T04:18:13.015Z,989.64
2022-09-15T04:19:13.225Z,989.66
2022-09-15T04:20:13.277Z,989.66
2022-09-15T04:21:13.311Z,989.70
2022-09-15T04:22:16.989Z,989.73
2022-09-15T04:23:13.703Z,989.74
2022-09-15T04:24:13.567Z,989.72
2022-09-15T04:25:13.861Z,989.73
2022-09-15T04:26:13.727Z,989.78
2022-09-15T04:27:13.877Z,989.77
2022-09-15T04:28:14.002Z,989.78
2022-09-15T04:29:13.325Z,989.80
2022-09-15T04:30:13.269Z,989.80
2022-09-15T04:31:13.459Z,989.80
2022-09-15T04:32:13.637Z,989.83
2022-09-15T04:33:13.600Z,989.80
2022-09-15T04:34:13.512Z,989.80
2022-09-15T04:35:13.563Z,989.75
2022-09-15T04:36:13.556Z,989.76
2022-09-15T04:37:13.633Z,989.77
2022-09-15T04:38:13.601Z,989.74
2022-09-15T04:39:13.732Z,989.73
2022-09-15T04:40:13.941Z,989.74
2022-09-15T04:41:13.208Z,989.72
2022-09-15T04:42:13.197Z,989.75
2022-09-15T04:43:13.095Z,989.82
2022-09-15T04:44:12.946Z,989.79
2022-09-15T04:45:12.945Z,989.78
2022-09-15T04:46:12.970Z,989.82
2022-09-15T04:47:13.017Z,989.80
2022-09-15T04:48:12.897Z,989.81
2022-09-15T04:49:12.940Z,989.79
2022-09-15T04:50:12.930Z,989.79
2022-09-15T04:51:12.920Z,989.77
2022-09-15T04:52:13.448Z,989.75
2022-09-15T04:53:13.612Z,989.77
2022-09-15T04:54:13.798Z,989.73
2022-09-15T04:55:12.772Z,989.73
2022-09-15T04:56:14.004Z,989.75
2022-09-15T04:57:13.171Z,989.76
2022-09-15T04:58:13.308Z,989.71
2022-09-15T04:59:13.221Z,989.75
2022-09-15T05:00:13.165Z,989.76
2022-09-15T05:01:13.368Z,989.76
2022-09-15T05:02:13.820Z,989.79
2022-09-15T05:03:13.785Z,989.82
2022-09-15T05:04:13.725Z,989.83
2022-09-15T05:05:13.604Z,989.84
2022-09-15T05:06:13.433Z,989.83
2022-09-15T05:07:13.252Z,989.81
2022-09-15T05:08:13.259Z,989.83
2022-09-15T05:09:13.496Z,989.83
2022-09-15T05:10:13.443Z,989.88
2022-09-15T05:11:13.322Z,989.78
2022-09-15T05:12:13.248Z,989.83
2022-09-15T05:13:13.132Z,989.85
2022-09-15T05:14:13.100Z,989.86
2022-09-15T05:15:12.972Z,989.87
2022-09-15T05:16:12.830Z,989.88
2022-09-15T05:17:15.066Z,989.89
2022-09-15T05:18:13.124Z,989.89
2022-09-15T05:19:13.039Z,989.88
2022-09-15T05:20:12.935Z,989.93
2022-09-15T05:21:12.949Z,989.93
2022-09-15T05:22:12.925Z,989.93
2022-09-15T05:23:12.957Z,989.92
2022-09-15T05:24:12.871Z,989.96
2022-09-15T05:25:13.931Z,989.98
2022-09-15T05:26:12.887Z,990.00
2022-09-15T05:27:14.198Z,989.96
2022-09-15T05:28:13.066Z,989.98
2022-09-15T05:29:13.088Z,990.02
2022-09-15T05:30:36.645Z,990.03
2022-09-15T05:31:12.928Z,990.02
2022-09-15T05:32:13.112Z,990.05
2022-09-15T05:33:13.350Z,990.01
2022-09-15T05:34:13.421Z,990.02
2022-09-15T05:35:13.383Z,990.03
2022-09-15T05:36:13.323Z,990.05
2022-09-15T05:37:13.914Z,990.01
2022-09-15T05:38:13.250Z,990.03
2022-09-15T05:39:13.260Z,990.05
2022-09-15T05:40:13.607Z,990.03
2022-09-15T05:41:13.638Z,990.04
2022-09-15T05:42:14.049Z,990.03
2022-09-15T05:43:13.769Z,990.06
2022-09-15T05:44:14.339Z,990.05
2022-09-15T05:45:18.514Z,990.07
2022-09-15T05:46:13.875Z,990.04
2022-09-15T05:47:13.060Z,990.04
2022-09-15T05:48:13.209Z,990.05
2022-09-15T05:49:13.522Z,990.03
2022-09-15T05:50:13.794Z,990.02
2022-09-15T05:51:13.658Z,990.03
2022-09-15T05:52:13.863Z,990.06
2022-09-15T05:53:13.833Z,990.07
2022-09-15T05:54:13.938Z,990.10
2022-09-15T05:55:13.515Z,990.06
2022-09-15T05:56:13.367Z,990.06
2022-09-15T05:57:13.247Z,990.03
2022-09-15T05:58:13.467Z,990.06
2022-09-15T05:59:13.797Z,990.05
2022-09-15T06:00:13.997Z,990.03
2022-09-15T06:01:13.297Z,990.02
2022-09-15T06:02:13.391Z,990.03
2022-09-15T06:03:13.571Z,990.01
2022-09-15T06:04:13.491Z,990.06
2022-09-15T06:05:13.548Z,990.01
2022-09-15T06:06:13.507Z,990.07
2022-09-15T06:07:13.546Z,990.06
2022-09-15T06:08:13.576Z,990.11
2022-09-15T06:09:18.523Z,990.12
2022-09-15T06:10:13.473Z,990.12
2022-09-15T06:11:13.572Z,990.19
2022-09-15T06:12:13.453Z,990.16
2022-09-15T06:13:13.307Z,990.16
2022-09-15T06:14:13.486Z,990.22
2022-09-15T06:15:14.747Z,990.23
2022-09-15T06:16:14.127Z,990.24
2022-09-15T06:17:14.952Z,990.22
2022-09-15T06:18:18.997Z,990.23
2022-09-15T06:19:12.939Z,990.26
2022-09-15T06:20:18.909Z,990.22
2022-09-15T06:21:13.745Z,990.28
2022-09-15T06:22:15.074Z,990.29
2022-09-15T06:23:13.667Z,990.30
2022-09-15T06:24:13.613Z,990.30
2022-09-15T06:25:13.478Z,990.36
2022-09-15T06:26:24.538Z,990.32
2022-09-15T06:27:13.865Z,990.35
2022-09-15T06:28:14.042Z,990.33
2022-09-15T06:29:13.026Z,990.34
2022-09-15T06:30:13.077Z,990.32
2022-09-15T06:31:13.479Z,990.35
2022-09-15T06:32:13.638Z,990.34
2022-09-15T06:33:13.750Z,990.38
2022-09-15T06:34:13.644Z,990.38
2022-09-15T06:35:14.219Z,990.41
2022-09-15T06:36:13.240Z,990.38
2022-09-15T06:37:13.389Z,990.41
2022-09-15T06:38:13.778Z,990.39
2022-09-15T06:39:13.738Z,990.46
2022-09-15T06:40:14.105Z,990.45
2022-09-15T06:41:13.316Z,990.46
2022-09-15T06:42:14.002Z,990.48
2022-09-15T06:43:13.122Z,990.45
2022-09-15T06:44:13.291Z,990.47
2022-09-15T06:45:14.470Z,990.48
2022-09-15T06:46:13.710Z,990.47
2022-09-15T06:47:13.613Z,990.51
2022-09-15T06:48:24.333Z,990.50
2022-09-15T06:49:13.089Z,990.51
2022-09-15T06:50:13.201Z,990.50
2022-09-15T06:51:13.395Z,990.57
2022-09-15T06:52:13.763Z,990.54
2022-09-15T06:53:13.591Z,990.60
2022-09-15T06:54:13.616Z,990.57
2022-09-15T06:55:13.689Z,990.59
2022-09-15T06:56:13.600Z,990.58
2022-09-15T06:57:13.536Z,990.58
2022-09-15T06:58:13.421Z,990.63
2022-09-15T06:59:13.739Z,990.58
2022-09-15T07:00:13.960Z,990.61
2022-09-15T07:01:12.958Z,990.63
2022-09-15T07:02:12.986Z,990.62
2022-09-15T07:03:13.270Z,990.64
2022-09-15T07:04:13.710Z,990.65
2022-09-15T07:05:13.795Z,990.69
2022-09-15T07:06:14.062Z,990.70
2022-09-15T07:07:13.137Z,990.69
2022-09-15T07:08:13.263Z,990.74
2022-09-15T07:09:13.599Z,990.73
2022-09-15T07:10:14.086Z,990.70
2022-09-15T07:11:13.087Z,990.71
2022-09-15T07:12:13.035Z,990.76
2022-09-15T07:13:13.040Z,990.76
2022-09-15T07:14:13.056Z,990.77
2022-09-15T07:15:13.623Z,990.79
2022-09-15T07:16:13.761Z,990.81
2022-09-15T07:17:13.714Z,990.82
2022-09-15T07:18:13.739Z,990.83
2022-09-15T07:19:13.728Z,990.88
2022-09-15T07:20:13.960Z,990.88
2022-09-15T07:21:12.905Z,990.88
2022-09-15T07:22:13.419Z,990.87
2022-09-15T07:23:14.642Z,990.85
2022-09-15T07:24:13.867Z,990.87
2022-09-15T07:25:13.886Z,990.88
2022-09-15T07:26:13.116Z,990.88
2022-09-15T07:27:13.364Z,990.89
2022-09-15T07:28:13.807Z,990.88
2022-09-15T07:29:13.980Z,990.88
2022-09-15T07:30:12.979Z,990.94
2022-09-15T07:31:14.218Z,990.94
2022-09-15T07:32:13.647Z,990.92
2022-09-15T07:33:14.155Z,990.95
2022-09-15T07:34:12.996Z,990.96
2022-09-15T07:35:13.224Z,990.97
2022-09-15T07:36:13.376Z,990.98
2022-09-15T07:37:13.612Z,990.98
2022-09-15T07:38:14.029Z,990.98
2022-09-15T07:39:13.392Z,990.99
2022-09-15T07:40:13.570Z,991.01
2022-09-15T07:41:14.216Z,991.00
2022-09-15T07:42:18.496Z,991.01
2022-09-15T07:43:13.366Z,990.98
2022-09-15T07:44:13.344Z,991.03
2022-09-15T07:45:13.395Z,991.02
2022-09-15T07:46:13.619Z,991.04
2022-09-15T07:47:14.011Z,991.06
2022-09-15T07:48:13.545Z,991.04
2022-09-15T07:49:18.747Z,991.05
2022-09-15T07:50:14.026Z,991.05
2022-09-15T07:51:13.301Z,991.04
2022-09-15T07:52:13.486Z,991.02
2022-09-15T07:53:13.437Z,991.01
2022-09-15T07:54:16.268Z,991.07
2022-09-15T07:55:13.688Z,991.09
2022-09-15T07:56:13.890Z,991.07
2022-09-15T07:57:14.162Z,991.04
2022-09-15T07:58:13.159Z,991.06
2022-09-15T07:59:13.174Z,991.07
2022-09-15T08:00:13.412Z,991.11
2022-09-15T08:01:13.528Z,991.15
2022-09-15T08:02:14.087Z,991.13
2022-09-15T08:03:13.833Z,991.10
2022-09-15T08:04:13.753Z,991.06
2022-09-15T08:05:13.920Z,991.08
2022-09-15T08:06:13.063Z,991.09
2022-09-15T08:07:13.131Z,991.09
2022-09-15T08:08:13.067Z,991.08
2022-09-15T08:09:13.026Z,991.06
2022-09-15T08:10:12.862Z,991.05
2022-09-15T08:11:18.265Z,991.07
2022-09-15T08:12:13.773Z,991.06
2022-09-15T08:13:13.858Z,991.09
2022-09-15T08:14:13.783Z,991.13
2022-09-15T08:15:13.937Z,991.17
2022-09-15T08:16:12.960Z,991.15
2022-09-15T08:17:12.830Z,991.16
2022-09-15T08:18:13.867Z,991.14
2022-09-15T08:19:14.058Z,991.15
2022-09-15T08:20:13.153Z,991.21
2022-09-15T08:21:13.088Z,991.26
2022-09-15T08:22:14.199Z,991.24
2022-09-15T08:23:13.370Z,991.24
2022-09-15T08:24:13.771Z,991.30
2022-09-15T08:25:13.665Z,991.31
2022-09-15T08:26:14.346Z,991.30
2022-09-15T08:27:13.855Z,991.33
2022-09-15T08:28:13.797Z,991.34
2022-09-15T08:29:14.101Z,991.32
2022-09-15T08:30:13.228Z,991.33
2022-09-15T08:31:13.201Z,991.40
2022-09-15T08:32:13.181Z,991.41
2022-09-15T08:33:13.054Z,991.38
2022-09-15T08:34:13.000Z,991.37
2022-09-15T08:35:12.857Z,991.39
2022-09-15T08:36:13.898Z,991.41
2022-09-15T08:37:13.185Z,991.46
2022-09-15T08:38:13.510Z,991.46
2022-09-15T08:39:13.689Z,991.48
2022-09-15T08:40:13.946Z,991.47
2022-09-15T08:41:18.050Z,991.46
2022-09-15T08:42:13.357Z,991.49
2022-09-15T08:43:13.242Z,991.52
2022-09-15T08:44:18.157Z,991.49
2022-09-15T08:45:14.321Z,991.52
2022-09-15T08:46:18.746Z,991.57
2022-09-15T08:47:13.844Z,991.50
2022-09-15T08:48:14.150Z,991.55
2022-09-15T08:49:16.830Z,991.55
2022-09-15T08:50:13.411Z,991.57
2022-09-15T08:51:13.278Z,991.54
2022-09-15T08:52:13.201Z,991.57
2022-09-15T08:53:13.253Z,991.56
2022-09-15T08:54:13.245Z,991.58
2022-09-15T08:55:13.365Z,991.58
2022-09-15T08:56:13.386Z,991.58
2022-09-15T08:57:13.416Z,991.60
2022-09-15T08:58:13.880Z,991.61
2022-09-15T08:59:15.572Z,991.64
2022-09-15T09:00:13.586Z,991.60
2022-09-15T09:01:13.537Z,991.64
2022-09-15T09:02:13.526Z,991.62
2022-09-15T09:03:13.672Z,991.58
2022-09-15T09:04:17.549Z,991.59
2022-09-15T09:05:13.065Z,991.61
2022-09-15T09:06:13.286Z,991.60
2022-09-15T09:07:13.304Z,991.63
2022-09-15T09:08:13.306Z,991.68
2022-09-15T09:09:13.434Z,991.69
2022-09-15T09:10:13.769Z,991.70
2022-09-15T09:11:13.765Z,991.73
2022-09-15T09:12:13.651Z,991.71
2022-09-15T09:13:13.632Z,991.74
2022-09-15T09:14:13.427Z,991.77
2022-09-15T09:15:13.614Z,991.76
2022-09-15T09:16:14.062Z,991.73
2022-09-15T09:17:14.138Z,991.77
2022-09-15T09:18:13.612Z,991.77
2022-09-15T09:19:13.517Z,991.76
2022-09-15T09:20:13.689Z,991.75
2022-09-15T09:21:13.678Z,991.77
2022-09-15T09:22:13.906Z,991.77
2022-09-15T09:23:12.762Z,991.76
2022-09-15T09:24:14.070Z,991.77
2022-09-15T09:25:26.803Z,991.84
2022-09-15T09:26:13.086Z,991.78
2022-09-15T09:27:12.982Z,991.75
2022-09-15T09:28:12.972Z,991.78
2022-09-15T09:29:13.072Z,991.83
2022-09-15T09:30:13.232Z,991.83
2022-09-15T09:31:15.040Z,991.85
2022-09-15T09:32:12.954Z,991.81
2022-09-15T09:33:13.090Z,991.81
2022-09-15T09:34:13.214Z,991.79
2022-09-15T09:35:13.177Z,991.81
2022-09-15T09:36:13.580Z,991.84
2022-09-15T09:37:13.691Z,991.85
2022-09-15T09:38:13.719Z,991.81
2022-09-15T09:39:13.642Z,991.83
2022-09-15T09:40:13.779Z,991.85
2022-09-15T09:41:13.940Z,991.84
2022-09-15T09:42:12.952Z,991.88
2022-09-15T09:43:13.002Z,991.80
2022-09-15T09:44:13.008Z,991.81
2022-09-15T09:45:14.486Z,991.82
2022-09-15T09:46:13.647Z,991.81
2022-09-15T09:47:14.465Z,991.88
2022-09-15T09:48:13.682Z,991.86
2022-09-15T09:49:15.119Z,991.85
2022-09-15T09:50:13.444Z,991.88
2022-09-15T09:51:13.467Z,991.86
2022-09-15T09:52:13.546Z,991.81
2022-09-15T09:53:30.533Z,991.80
2022-09-15T09:54:14.140Z,991.88
2022-09-15T09:56:15.463Z,991.89
2022-09-15T09:57:39.921Z,991.89
2022-09-15T09:58:14.383Z,991.93
2022-09-15T09:59:13.459Z,991.83
2022-09-15T10:00:13.367Z,991.89
2022-09-15T10:01:14.912Z,991.89
2022-09-15T10:02:13.048Z,991.84
2022-09-15T10:03:13.323Z,991.82
2022-09-15T10:04:15.745Z,991.84
2022-09-15T10:05:13.737Z,991.80
2022-09-15T10:06:13.938Z,991.80
2022-09-15T10:07:13.351Z,991.80
2022-09-15T10:08:13.325Z,991.78
2022-09-15T10:09:13.322Z,991.73
2022-09-15T10:10:13.328Z,991.76
2022-09-15T10:11:14.398Z,991.74
2022-09-15T10:12:13.301Z,991.79
2022-09-15T10:13:13.279Z,991.74
2022-09-15T10:14:13.540Z,991.75
2022-09-15T10:15:13.705Z,991.70
2022-09-15T10:16:13.814Z,991.77
2022-09-15T10:17:13.800Z,991.76
2022-09-15T10:18:14.120Z,991.79
2022-09-15T10:19:13.254Z,991.79
2022-09-15T10:20:13.395Z,991.82
2022-09-15T10:21:13.587Z,991.80
2022-09-15T10:22:15.356Z,991.78
2022-09-15T10:23:13.537Z,991.75
2022-09-15T10:24:16.387Z,991.73
2022-09-15T10:25:14.540Z,991.72
2022-09-15T10:26:13.617Z,991.69
2022-09-15T10:27:13.775Z,991.73
2022-09-15T10:28:14.226Z,991.75
2022-09-15T10:29:13.294Z,991.71
2022-09-15T10:30:13.442Z,991.74
2022-09-15T10:31:13.548Z,991.76
2022-09-15T10:32:13.479Z,991.76
2022-09-15T10:33:13.355Z,991.77
2022-09-15T10:34:13.250Z,991.74
2022-09-15T10:35:13.188Z,991.77
2022-09-15T10:36:13.398Z,991.71
2022-09-15T10:37:13.695Z,991.73
2022-09-15T10:38:13.756Z,991.70
2022-09-15T10:39:13.850Z,991.77
2022-09-15T10:40:13.894Z,991.72
2022-09-15T10:41:12.828Z,991.72
2022-09-15T10:42:14.017Z,991.73
2022-09-15T10:43:12.902Z,991.72
2022-09-15T10:44:14.702Z,991.71
2022-09-15T10:45:13.780Z,991.72
2022-09-15T10:46:13.873Z,991.73
2022-09-15T10:47:14.549Z,991.72
2022-09-15T10:48:13.833Z,991.77
2022-09-15T10:49:13.803Z,991.77
2022-09-15T10:50:14.188Z,991.78
2022-09-15T10:51:13.444Z,991.79
2022-09-15T10:52:13.543Z,991.81
2022-09-15T10:53:14.096Z,991.82
2022-09-15T10:54:12.967Z,991.83
2022-09-15T10:55:12.897Z,991.84
2022-09-15T10:56:13.021Z,991.86
2022-09-15T10:57:13.094Z,991.87
2022-09-15T10:58:13.374Z,991.92
2022-09-15T10:59:13.441Z,991.92
2022-09-15T11:00:13.814Z,991.93
2022-09-15T11:01:14.376Z,992.02
2022-09-15T11:02:13.809Z,991.99
2022-09-15T11:03:12.735Z,992.06
2022-09-15T11:04:13.728Z,992.05
2022-09-15T11:05:13.743Z,992.04
2022-09-15T11:06:17.569Z,992.10
2022-09-15T11:07:14.022Z,992.09
2022-09-15T11:08:13.238Z,992.07
2022-09-15T11:09:13.143Z,992.04
2022-09-15T11:10:13.182Z,992.03
2022-09-15T11:11:13.066Z,992.06
2022-09-15T11:12:13.172Z,992.06
2022-09-15T11:13:13.184Z,992.10
2022-09-15T11:14:13.222Z,992.10
2022-09-15T11:15:13.096Z,992.13
2022-09-15T11:16:13.067Z,992.09
2022-09-15T11:17:13.095Z,992.13
2022-09-15T11:18:13.215Z,992.09
2022-09-15T11:19:14.291Z,992.09
2022-09-15T11:20:13.233Z,992.11
2022-09-15T11:21:13.171Z,992.09
2022-09-15T11:22:13.320Z,992.05
2022-09-15T11:23:13.223Z,992.06
2022-09-15T11:24:19.873Z,992.02
2022-09-15T11:25:13.950Z,992.02
2022-09-15T11:26:12.922Z,992.02
2022-09-15T11:27:13.134Z,992.01
2022-09-15T11:28:13.115Z,992.02
2022-09-15T11:29:13.122Z,991.99
2022-09-15T11:30:13.253Z,992.01
2022-09-15T11:31:13.249Z,992.05
2022-09-15T11:32:13.425Z,992.05
2022-09-15T11:33:13.423Z,992.06
2022-09-15T11:34:13.516Z,992.05
2022-09-15T11:35:13.451Z,992.04
2022-09-15T11:36:13.364Z,992.04
2022-09-15T11:37:13.269Z,992.11
2022-09-15T11:38:13.613Z,992.09
2022-09-15T11:39:13.536Z,992.11
2022-09-15T11:40:13.624Z,992.10
2022-09-15T11:41:14.106Z,992.15
2022-09-15T11:42:13.262Z,992.14
2022-09-15T11:43:13.189Z,992.16
2022-09-15T11:44:16.848Z,992.17
2022-09-15T11:45:18.341Z,992.19
2022-09-15T11:46:13.409Z,992.17
2022-09-15T11:47:16.334Z,992.12
2022-09-15T11:48:13.366Z,992.13
2022-09-15T11:49:13.317Z,992.15
2022-09-15T11:50:13.384Z,992.14
2022-09-15T11:51:13.422Z,992.14
2022-09-15T11:52:13.321Z,992.11
2022-09-15T11:53:13.516Z,992.10
2022-09-15T11:54:13.566Z,992.12
2022-09-15T11:55:13.408Z,992.10
2022-09-15T11:56:15.654Z,992.09
2022-09-15T11:57:13.567Z,992.09
2022-09-15T11:58:16.334Z,992.11
2022-09-15T11:59:13.493Z,992.07
2022-09-15T12:00:13.994Z,992.10
2022-09-15T12:01:13.084Z,992.08
2022-09-15T12:02:12.983Z,992.04
2022-09-15T12:03:13.724Z,992.05
2022-09-15T12:04:14.489Z,992.02
2022-09-15T12:05:13.768Z,992.05
2022-09-15T12:06:14.124Z,992.02
2022-09-15T12:07:19.499Z,992.04
2022-09-15T12:08:13.644Z,992.03
2022-09-15T12:09:15.214Z,992.03
2022-09-15T12:10:13.404Z,992.02
2022-09-15T12:11:13.416Z,992.03
2022-09-15T12:12:13.402Z,992.08
2022-09-15T12:13:14.003Z,991.98
2022-09-15T12:14:13.351Z,992.01
2022-09-15T12:15:13.765Z,992.02
2022-09-15T12:16:14.929Z,992.03
2022-09-15T12:17:12.879Z,991.98
2022-09-15T12:18:34.427Z,991.97
2022-09-15T12:19:13.316Z,991.94
2022-09-15T12:20:13.326Z,991.98
2022-09-15T12:21:13.428Z,991.95
2022-09-15T12:22:13.644Z,991.94
2022-09-15T12:23:14.798Z,991.92
2022-09-15T12:24:15.263Z,991.95
2022-09-15T12:25:14.876Z,991.90
2022-09-15T12:26:14.327Z,991.87
2022-09-15T12:27:13.454Z,991.87
2022-09-15T12:28:13.925Z,991.89
2022-09-15T12:29:12.857Z,991.91